sensor_id;sensor_type;location;lat;lon;timestamp;P1;durP1;ratioP1;P2;durP2;ratioP2
13303;SDS011;6720;51.958;4.540;2023-12-04T00:01:33;19.10;;;12.90;;
13303;SDS011;6720;51.958;4.540;2023-12-04T00:03:59;17.80;;;13.07;;
13303;SDS011;6720;51.958;4.540;2023-12-04T00:06:24;17.77;;;12.00;;
13303;SDS011;6720;51.958;4.540;2023-12-04T00:08:49;18.60;;;13.23;;
13303;SDS011;6720;51.958;4.540;2023-12-04T00:11:15;18.40;;;12.17;;
13303;SDS011;6720;51.958;4.540;2023-12-04T00:13:40;20.60;;;13.50;;
13303;SDS011;6720;51.958;4.540;2023-12-04T00:16:06;18.47;;;13.17;;
13303;SDS011;6720;51.958;4.540;2023-12-04T00:18:31;19.70;;;13.47;;
13303;SDS011;6720;51.958;4.540;2023-12-04T00:20:57;18.80;;;13.20;;
13303;SDS011;6720;51.958;4.540;2023-12-04T00:23:22;16.57;;;12.33;;
13303;SDS011;6720;51.958;4.540;2023-12-04T00:25:48;17.57;;;12.77;;
13303;SDS011;6720;51.958;4.540;2023-12-04T00:28:13;18.73;;;12.47;;
13303;SDS011;6720;51.958;4.540;2023-12-04T00:30:39;18.43;;;12.67;;
13303;SDS011;6720;51.958;4.540;2023-12-04T00:33:04;19.00;;;12.60;;
13303;SDS011;6720;51.958;4.540;2023-12-04T00:35:29;20.10;;;12.67;;
13303;SDS011;6720;51.958;4.540;2023-12-04T00:37:55;17.30;;;12.60;;
13303;SDS011;6720;51.958;4.540;2023-12-04T00:40:20;17.87;;;12.37;;
13303;SDS011;6720;51.958;4.540;2023-12-04T00:42:45;18.03;;;12.63;;
13303;SDS011;6720;51.958;4.540;2023-12-04T00:45:11;18.63;;;12.40;;
13303;SDS011;6720;51.958;4.540;2023-12-04T00:47:36;20.13;;;12.33;;
13303;SDS011;6720;51.958;4.540;2023-12-04T00:50:02;17.60;;;12.97;;
13303;SDS011;6720;51.958;4.540;2023-12-04T00:52:27;19.80;;;12.73;;
13303;SDS011;6720;51.958;4.540;2023-12-04T00:54:53;17.90;;;12.37;;
13303;SDS011;6720;51.958;4.540;2023-12-04T00:57:18;17.73;;;12.40;;
13303;SDS011;6720;51.958;4.540;2023-12-04T00:59:45;19.23;;;12.97;;
13303;SDS011;6720;51.958;4.540;2023-12-04T01:02:11;18.53;;;12.47;;
13303;SDS011;6720;51.958;4.540;2023-12-04T01:04:39;18.77;;;12.77;;
13303;SDS011;6720;51.958;4.540;2023-12-04T01:07:05;17.20;;;12.63;;
13303;SDS011;6720;51.958;4.540;2023-12-04T01:09:30;17.57;;;12.67;;
13303;SDS011;6720;51.958;4.540;2023-12-04T01:11:56;17.50;;;12.00;;
13303;SDS011;6720;51.958;4.540;2023-12-04T01:14:21;17.53;;;12.20;;
13303;SDS011;6720;51.958;4.540;2023-12-04T01:16:47;19.50;;;12.20;;
13303;SDS011;6720;51.958;4.540;2023-12-04T01:19:12;16.43;;;11.83;;
13303;SDS011;6720;51.958;4.540;2023-12-04T01:21:38;17.90;;;12.37;;
13303;SDS011;6720;51.958;4.540;2023-12-04T01:24:04;16.30;;;11.80;;
13303;SDS011;6720;51.958;4.540;2023-12-04T01:26:29;17.33;;;11.73;;
13303;SDS011;6720;51.958;4.540;2023-12-04T01:28:55;15.90;;;12.53;;
13303;SDS011;6720;51.958;4.540;2023-12-04T01:31:20;14.90;;;11.30;;
13303;SDS011;6720;51.958;4.540;2023-12-04T01:33:46;17.00;;;11.93;;
13303;SDS011;6720;51.958;4.540;2023-12-04T01:36:11;15.57;;;11.57;;
13303;SDS011;6720;51.958;4.540;2023-12-04T01:38:37;16.17;;;11.07;;
13303;SDS011;6720;51.958;4.540;2023-12-04T01:41:03;15.20;;;11.20;;
13303;SDS011;6720;51.958;4.540;2023-12-04T01:43:29;16.70;;;10.87;;
13303;SDS011;6720;51.958;4.540;2023-12-04T01:45:55;15.23;;;11.30;;
13303;SDS011;6720;51.958;4.540;2023-12-04T01:48:21;15.17;;;10.97;;
13303;SDS011;6720;51.958;4.540;2023-12-04T01:50:48;17.77;;;12.17;;
13303;SDS011;6720;51.958;4.540;2023-12-04T01:53:14;15.83;;;10.53;;
13303;SDS011;6720;51.958;4.540;2023-12-04T01:55:39;15.70;;;10.80;;
13303;SDS011;6720;51.958;4.540;2023-12-04T01:58:06;12.77;;;10.40;;
13303;SDS011;6720;51.958;4.540;2023-12-04T02:00:32;16.63;;;11.73;;
13303;SDS011;6720;51.958;4.540;2023-12-04T02:02:57;16.27;;;11.43;;
13303;SDS011;6720;51.958;4.540;2023-12-04T02:05:23;13.63;;;10.53;;
13303;SDS011;6720;51.958;4.540;2023-12-04T02:07:51;15.00;;;10.80;;
13303;SDS011;6720;51.958;4.540;2023-12-04T02:10:17;18.60;;;11.40;;
13303;SDS011;6720;51.958;4.540;2023-12-04T02:12:43;13.33;;;10.13;;
13303;SDS011;6720;51.958;4.540;2023-12-04T02:15:08;13.87;;;10.63;;
13303;SDS011;6720;51.958;4.540;2023-12-04T02:17:34;13.57;;;10.53;;
13303;SDS011;6720;51.958;4.540;2023-12-04T02:20:00;14.90;;;10.67;;
13303;SDS011;6720;51.958;4.540;2023-12-04T02:22:26;13.43;;;10.07;;
13303;SDS011;6720;51.958;4.540;2023-12-04T02:24:51;16.93;;;11.13;;
13303;SDS011;6720;51.958;4.540;2023-12-04T02:27:25;16.37;;;10.33;;
13303;SDS011;6720;51.958;4.540;2023-12-04T02:29:58;13.17;;;10.13;;
13303;SDS011;6720;51.958;4.540;2023-12-04T02:32:24;14.33;;;10.27;;
13303;SDS011;6720;51.958;4.540;2023-12-04T02:34:54;12.53;;;10.10;;
13303;SDS011;6720;51.958;4.540;2023-12-04T02:37:20;14.03;;;10.10;;
13303;SDS011;6720;51.958;4.540;2023-12-04T02:39:47;13.80;;;10.53;;
13303;SDS011;6720;51.958;4.540;2023-12-04T02:42:14;13.43;;;9.87;;
13303;SDS011;6720;51.958;4.540;2023-12-04T02:44:42;14.93;;;9.37;;
13303;SDS011;6720;51.958;4.540;2023-12-04T02:47:07;12.80;;;9.17;;
13303;SDS011;6720;51.958;4.540;2023-12-04T02:49:33;12.80;;;9.57;;
13303;SDS011;6720;51.958;4.540;2023-12-04T02:51:58;12.40;;;9.20;;
13303;SDS011;6720;51.958;4.540;2023-12-04T02:54:24;12.67;;;9.50;;
13303;SDS011;6720;51.958;4.540;2023-12-04T02:56:50;12.83;;;9.07;;
13303;SDS011;6720;51.958;4.540;2023-12-04T02:59:15;11.70;;;9.57;;
13303;SDS011;6720;51.958;4.540;2023-12-04T03:01:41;12.60;;;9.77;;
13303;SDS011;6720;51.958;4.540;2023-12-04T03:04:06;12.20;;;9.50;;
13303;SDS011;6720;51.958;4.540;2023-12-04T03:06:31;11.80;;;9.27;;
13303;SDS011;6720;51.958;4.540;2023-12-04T03:08:58;12.73;;;9.53;;
13303;SDS011;6720;51.958;4.540;2023-12-04T03:11:24;12.30;;;9.30;;
13303;SDS011;6720;51.958;4.540;2023-12-04T03:13:50;11.53;;;9.07;;
13303;SDS011;6720;51.958;4.540;2023-12-04T03:16:16;12.90;;;9.37;;
13303;SDS011;6720;51.958;4.540;2023-12-04T03:18:42;11.97;;;9.40;;
13303;SDS011;6720;51.958;4.540;2023-12-04T03:21:08;12.60;;;8.67;;
13303;SDS011;6720;51.958;4.540;2023-12-04T03:23:33;11.33;;;8.83;;
13303;SDS011;6720;51.958;4.540;2023-12-04T03:25:59;13.03;;;9.27;;
13303;SDS011;6720;51.958;4.540;2023-12-04T03:28:24;11.67;;;8.57;;
13303;SDS011;6720;51.958;4.540;2023-12-04T03:30:49;11.50;;;8.23;;
13303;SDS011;6720;51.958;4.540;2023-12-04T03:33:15;11.00;;;8.20;;
13303;SDS011;6720;51.958;4.540;2023-12-04T03:35:40;12.17;;;8.90;;
13303;SDS011;6720;51.958;4.540;2023-12-04T03:38:05;11.17;;;8.43;;
13303;SDS011;6720;51.958;4.540;2023-12-04T03:40:31;10.17;;;8.10;;
13303;SDS011;6720;51.958;4.540;2023-12-04T03:42:57;10.83;;;8.23;;
13303;SDS011;6720;51.958;4.540;2023-12-04T03:45:22;10.70;;;8.07;;
13303;SDS011;6720;51.958;4.540;2023-12-04T03:47:47;11.83;;;9.00;;
13303;SDS011;6720;51.958;4.540;2023-12-04T03:50:13;11.17;;;7.83;;
13303;SDS011;6720;51.958;4.540;2023-12-04T03:52:38;11.97;;;8.23;;
13303;SDS011;6720;51.958;4.540;2023-12-04T03:55:04;11.13;;;8.30;;
13303;SDS011;6720;51.958;4.540;2023-12-04T03:57:30;12.30;;;8.47;;
13303;SDS011;6720;51.958;4.540;2023-12-04T03:59:55;11.20;;;8.23;;
13303;SDS011;6720;51.958;4.540;2023-12-04T04:02:21;11.03;;;8.40;;
13303;SDS011;6720;51.958;4.540;2023-12-04T04:04:47;10.90;;;7.93;;
13303;SDS011;6720;51.958;4.540;2023-12-04T04:07:15;10.87;;;8.17;;
13303;SDS011;6720;51.958;4.540;2023-12-04T04:09:41;9.53;;;7.60;;
13303;SDS011;6720;51.958;4.540;2023-12-04T04:12:06;11.23;;;7.90;;
13303;SDS011;6720;51.958;4.540;2023-12-04T04:14:32;10.07;;;7.60;;
13303;SDS011;6720;51.958;4.540;2023-12-04T04:16:57;11.37;;;7.60;;
13303;SDS011;6720;51.958;4.540;2023-12-04T04:19:23;11.83;;;8.23;;
13303;SDS011;6720;51.958;4.540;2023-12-04T04:21:48;10.73;;;7.97;;
13303;SDS011;6720;51.958;4.540;2023-12-04T04:24:14;10.60;;;8.07;;
13303;SDS011;6720;51.958;4.540;2023-12-04T04:26:39;11.20;;;8.13;;
13303;SDS011;6720;51.958;4.540;2023-12-04T04:29:04;11.20;;;7.50;;
13303;SDS011;6720;51.958;4.540;2023-12-04T04:31:30;9.87;;;7.50;;
13303;SDS011;6720;51.958;4.540;2023-12-04T04:33:55;11.50;;;8.37;;
13303;SDS011;6720;51.958;4.540;2023-12-04T04:36:21;10.67;;;7.57;;
13303;SDS011;6720;51.958;4.540;2023-12-04T04:38:46;10.07;;;7.67;;
13303;SDS011;6720;51.958;4.540;2023-12-04T04:41:15;11.27;;;7.90;;
13303;SDS011;6720;51.958;4.540;2023-12-04T04:43:41;12.07;;;8.00;;
13303;SDS011;6720;51.958;4.540;2023-12-04T04:46:07;10.87;;;8.63;;
13303;SDS011;6720;51.958;4.540;2023-12-04T04:48:33;10.70;;;7.53;;
13303;SDS011;6720;51.958;4.540;2023-12-04T04:50:58;10.37;;;8.17;;
13303;SDS011;6720;51.958;4.540;2023-12-04T04:53:24;10.23;;;8.13;;
13303;SDS011;6720;51.958;4.540;2023-12-04T04:55:49;11.40;;;8.30;;
13303;SDS011;6720;51.958;4.540;2023-12-04T04:58:15;10.73;;;7.67;;
13303;SDS011;6720;51.958;4.540;2023-12-04T05:00:41;10.93;;;7.83;;
13303;SDS011;6720;51.958;4.540;2023-12-04T05:03:07;9.23;;;8.00;;
13303;SDS011;6720;51.958;4.540;2023-12-04T05:05:32;9.20;;;7.33;;
13303;SDS011;6720;51.958;4.540;2023-12-04T05:07:57;10.70;;;7.77;;
13303;SDS011;6720;51.958;4.540;2023-12-04T05:10:23;10.33;;;7.60;;
13303;SDS011;6720;51.958;4.540;2023-12-04T05:12:48;10.07;;;7.83;;
13303;SDS011;6720;51.958;4.540;2023-12-04T05:15:14;9.93;;;7.33;;
13303;SDS011;6720;51.958;4.540;2023-12-04T05:17:40;11.47;;;8.00;;
13303;SDS011;6720;51.958;4.540;2023-12-04T05:20:05;9.90;;;7.50;;
13303;SDS011;6720;51.958;4.540;2023-12-04T05:22:32;10.93;;;7.80;;
13303;SDS011;6720;51.958;4.540;2023-12-04T05:24:59;10.17;;;7.87;;
13303;SDS011;6720;51.958;4.540;2023-12-04T05:27:24;10.20;;;7.47;;
13303;SDS011;6720;51.958;4.540;2023-12-04T05:29:52;10.03;;;8.20;;
13303;SDS011;6720;51.958;4.540;2023-12-04T05:32:18;12.47;;;8.67;;
13303;SDS011;6720;51.958;4.540;2023-12-04T05:34:43;10.40;;;8.07;;
13303;SDS011;6720;51.958;4.540;2023-12-04T05:37:09;13.03;;;8.30;;
13303;SDS011;6720;51.958;4.540;2023-12-04T05:39:34;10.33;;;8.00;;
13303;SDS011;6720;51.958;4.540;2023-12-04T05:41:59;10.77;;;8.60;;
13303;SDS011;6720;51.958;4.540;2023-12-04T05:44:25;10.83;;;8.50;;
13303;SDS011;6720;51.958;4.540;2023-12-04T05:46:50;11.57;;;8.43;;
13303;SDS011;6720;51.958;4.540;2023-12-04T05:49:16;9.67;;;7.57;;
13303;SDS011;6720;51.958;4.540;2023-12-04T05:51:41;11.43;;;9.27;;
13303;SDS011;6720;51.958;4.540;2023-12-04T05:54:07;11.60;;;8.83;;
13303;SDS011;6720;51.958;4.540;2023-12-04T05:56:34;11.43;;;8.73;;
13303;SDS011;6720;51.958;4.540;2023-12-04T05:58:59;12.10;;;8.73;;
13303;SDS011;6720;51.958;4.540;2023-12-04T06:01:24;10.90;;;8.37;;
13303;SDS011;6720;51.958;4.540;2023-12-04T06:03:50;11.10;;;8.33;;
13303;SDS011;6720;51.958;4.540;2023-12-04T06:06:15;11.30;;;9.00;;
13303;SDS011;6720;51.958;4.540;2023-12-04T06:08:40;12.50;;;8.73;;
13303;SDS011;6720;51.958;4.540;2023-12-04T06:11:06;11.43;;;9.23;;
13303;SDS011;6720;51.958;4.540;2023-12-04T06:13:31;12.97;;;9.13;;
13303;SDS011;6720;51.958;4.540;2023-12-04T06:15:57;12.20;;;8.80;;
13303;SDS011;6720;51.958;4.540;2023-12-04T06:18:22;13.20;;;9.10;;
13303;SDS011;6720;51.958;4.540;2023-12-04T06:20:47;11.53;;;8.80;;
13303;SDS011;6720;51.958;4.540;2023-12-04T06:23:13;12.63;;;9.60;;
13303;SDS011;6720;51.958;4.540;2023-12-04T06:25:39;12.40;;;9.97;;
13303;SDS011;6720;51.958;4.540;2023-12-04T06:28:05;13.77;;;9.80;;
13303;SDS011;6720;51.958;4.540;2023-12-04T06:30:31;12.53;;;9.50;;
13303;SDS011;6720;51.958;4.540;2023-12-04T06:32:57;12.77;;;9.37;;
13303;SDS011;6720;51.958;4.540;2023-12-04T06:35:23;14.87;;;11.27;;
13303;SDS011;6720;51.958;4.540;2023-12-04T06:37:49;12.43;;;9.27;;
13303;SDS011;6720;51.958;4.540;2023-12-04T06:40:17;11.43;;;9.10;;
13303;SDS011;6720;51.958;4.540;2023-12-04T06:42:43;12.93;;;9.07;;
13303;SDS011;6720;51.958;4.540;2023-12-04T06:45:09;11.10;;;8.73;;
13303;SDS011;6720;51.958;4.540;2023-12-04T06:47:35;11.63;;;8.93;;
13303;SDS011;6720;51.958;4.540;2023-12-04T06:50:02;11.67;;;9.10;;
13303;SDS011;6720;51.958;4.540;2023-12-04T06:52:28;10.97;;;8.47;;
13303;SDS011;6720;51.958;4.540;2023-12-04T06:54:54;13.93;;;8.63;;
13303;SDS011;6720;51.958;4.540;2023-12-04T06:57:19;11.57;;;8.73;;
13303;SDS011;6720;51.958;4.540;2023-12-04T06:59:45;10.77;;;8.83;;
13303;SDS011;6720;51.958;4.540;2023-12-04T07:02:11;12.77;;;9.13;;
13303;SDS011;6720;51.958;4.540;2023-12-04T07:04:36;10.70;;;8.63;;
13303;SDS011;6720;51.958;4.540;2023-12-04T07:07:02;10.60;;;8.00;;
13303;SDS011;6720;51.958;4.540;2023-12-04T07:09:33;11.27;;;8.07;;
13303;SDS011;6720;51.958;4.540;2023-12-04T07:11:59;9.17;;;7.87;;
13303;SDS011;6720;51.958;4.540;2023-12-04T07:14:25;14.00;;;9.33;;
13303;SDS011;6720;51.958;4.540;2023-12-04T07:16:51;9.93;;;8.27;;
13303;SDS011;6720;51.958;4.540;2023-12-04T07:19:17;10.93;;;9.03;;
13303;SDS011;6720;51.958;4.540;2023-12-04T07:21:42;12.13;;;8.40;;
13303;SDS011;6720;51.958;4.540;2023-12-04T07:24:08;11.50;;;8.30;;
13303;SDS011;6720;51.958;4.540;2023-12-04T07:26:34;8.77;;;7.87;;
13303;SDS011;6720;51.958;4.540;2023-12-04T07:29:00;10.83;;;8.87;;
13303;SDS011;6720;51.958;4.540;2023-12-04T07:31:26;9.23;;;7.87;;
13303;SDS011;6720;51.958;4.540;2023-12-04T07:33:53;13.37;;;8.97;;
13303;SDS011;6720;51.958;4.540;2023-12-04T07:36:18;9.57;;;7.53;;
13303;SDS011;6720;51.958;4.540;2023-12-04T07:38:44;10.80;;;8.00;;
13303;SDS011;6720;51.958;4.540;2023-12-04T07:41:10;9.97;;;8.23;;
13303;SDS011;6720;51.958;4.540;2023-12-04T07:43:36;9.37;;;7.47;;
13303;SDS011;6720;51.958;4.540;2023-12-04T07:46:01;9.13;;;7.47;;
13303;SDS011;6720;51.958;4.540;2023-12-04T07:48:28;8.83;;;7.63;;
13303;SDS011;6720;51.958;4.540;2023-12-04T07:50:54;8.57;;;7.57;;
13303;SDS011;6720;51.958;4.540;2023-12-04T07:53:20;8.93;;;7.03;;
13303;SDS011;6720;51.958;4.540;2023-12-04T07:55:45;9.07;;;8.03;;
13303;SDS011;6720;51.958;4.540;2023-12-04T07:58:13;9.20;;;7.23;;
13303;SDS011;6720;51.958;4.540;2023-12-04T08:00:38;10.07;;;7.97;;
13303;SDS011;6720;51.958;4.540;2023-12-04T08:03:04;9.50;;;7.43;;
13303;SDS011;6720;51.958;4.540;2023-12-04T08:05:29;10.10;;;7.73;;
13303;SDS011;6720;51.958;4.540;2023-12-04T08:07:57;10.07;;;8.03;;
13303;SDS011;6720;51.958;4.540;2023-12-04T08:10:22;10.10;;;7.40;;
13303;SDS011;6720;51.958;4.540;2023-12-04T08:12:48;11.07;;;8.33;;
13303;SDS011;6720;51.958;4.540;2023-12-04T08:15:14;9.93;;;7.13;;
13303;SDS011;6720;51.958;4.540;2023-12-04T08:17:39;9.70;;;7.40;;
13303;SDS011;6720;51.958;4.540;2023-12-04T08:20:05;9.70;;;7.30;;
13303;SDS011;6720;51.958;4.540;2023-12-04T08:22:31;8.97;;;7.80;;
13303;SDS011;6720;51.958;4.540;2023-12-04T08:24:57;9.07;;;7.30;;
13303;SDS011;6720;51.958;4.540;2023-12-04T08:27:23;9.60;;;7.33;;
13303;SDS011;6720;51.958;4.540;2023-12-04T08:29:49;9.13;;;7.53;;
13303;SDS011;6720;51.958;4.540;2023-12-04T08:32:15;9.07;;;7.27;;
13303;SDS011;6720;51.958;4.540;2023-12-04T08:34:40;8.83;;;7.47;;
13303;SDS011;6720;51.958;4.540;2023-12-04T08:37:06;9.27;;;7.30;;
13303;SDS011;6720;51.958;4.540;2023-12-04T08:39:31;8.40;;;7.40;;
13303;SDS011;6720;51.958;4.540;2023-12-04T08:41:57;8.07;;;7.03;;
13303;SDS011;6720;51.958;4.540;2023-12-04T08:44:22;8.03;;;7.10;;
13303;SDS011;6720;51.958;4.540;2023-12-04T08:46:48;8.53;;;7.63;;
13303;SDS011;6720;51.958;4.540;2023-12-04T08:49:14;9.17;;;7.53;;
13303;SDS011;6720;51.958;4.540;2023-12-04T08:51:39;10.07;;;7.40;;
13303;SDS011;6720;51.958;4.540;2023-12-04T08:54:06;9.13;;;7.37;;
13303;SDS011;6720;51.958;4.540;2023-12-04T08:56:32;10.67;;;7.97;;
13303;SDS011;6720;51.958;4.540;2023-12-04T08:58:57;9.03;;;7.57;;
13303;SDS011;6720;51.958;4.540;2023-12-04T09:01:23;8.47;;;6.93;;
13303;SDS011;6720;51.958;4.540;2023-12-04T09:03:49;9.27;;;8.07;;
13303;SDS011;6720;51.958;4.540;2023-12-04T09:06:14;8.20;;;7.20;;
13303;SDS011;6720;51.958;4.540;2023-12-04T09:08:40;8.07;;;7.00;;
13303;SDS011;6720;51.958;4.540;2023-12-04T09:11:06;8.27;;;7.47;;
13303;SDS011;6720;51.958;4.540;2023-12-04T09:13:31;10.50;;;7.73;;
13303;SDS011;6720;51.958;4.540;2023-12-04T09:15:58;9.60;;;8.40;;
13303;SDS011;6720;51.958;4.540;2023-12-04T09:18:24;9.23;;;7.57;;
13303;SDS011;6720;51.958;4.540;2023-12-04T09:20:49;8.93;;;7.67;;
13303;SDS011;6720;51.958;4.540;2023-12-04T09:23:15;9.97;;;7.67;;
13303;SDS011;6720;51.958;4.540;2023-12-04T09:25:40;8.67;;;7.77;;
13303;SDS011;6720;51.958;4.540;2023-12-04T09:28:06;8.60;;;7.60;;
13303;SDS011;6720;51.958;4.540;2023-12-04T09:30:33;8.70;;;7.43;;
13303;SDS011;6720;51.958;4.540;2023-12-04T09:33:00;8.47;;;7.53;;
13303;SDS011;6720;51.958;4.540;2023-12-04T09:35:26;8.00;;;7.10;;
13303;SDS011;6720;51.958;4.540;2023-12-04T09:37:51;8.97;;;7.40;;
13303;SDS011;6720;51.958;4.540;2023-12-04T09:40:16;8.80;;;7.43;;
13303;SDS011;6720;51.958;4.540;2023-12-04T09:42:42;8.47;;;7.57;;
13303;SDS011;6720;51.958;4.540;2023-12-04T09:45:08;8.23;;;7.23;;
13303;SDS011;6720;51.958;4.540;2023-12-04T09:47:34;9.13;;;7.60;;
13303;SDS011;6720;51.958;4.540;2023-12-04T09:50:00;9.33;;;7.53;;
13303;SDS011;6720;51.958;4.540;2023-12-04T09:52:28;8.77;;;7.77;;
13303;SDS011;6720;51.958;4.540;2023-12-04T09:54:55;9.10;;;7.57;;
13303;SDS011;6720;51.958;4.540;2023-12-04T09:57:21;8.40;;;6.90;;
13303;SDS011;6720;51.958;4.540;2023-12-04T09:59:49;8.23;;;6.97;;
13303;SDS011;6720;51.958;4.540;2023-12-04T10:02:16;7.97;;;6.93;;
13303;SDS011;6720;51.958;4.540;2023-12-04T10:04:42;9.73;;;7.37;;
13303;SDS011;6720;51.958;4.540;2023-12-04T10:07:07;7.03;;;6.33;;
13303;SDS011;6720;51.958;4.540;2023-12-04T10:09:33;9.40;;;7.27;;
13303;SDS011;6720;51.958;4.540;2023-12-04T10:11:59;8.87;;;7.30;;
13303;SDS011;6720;51.958;4.540;2023-12-04T10:14:24;10.10;;;6.80;;
13303;SDS011;6720;51.958;4.540;2023-12-04T10:16:50;8.60;;;7.10;;
13303;SDS011;6720;51.958;4.540;2023-12-04T10:19:21;9.33;;;7.60;;
13303;SDS011;6720;51.958;4.540;2023-12-04T10:21:51;8.70;;;7.67;;
13303;SDS011;6720;51.958;4.540;2023-12-04T10:26:55;9.03;;;7.77;;
13303;SDS011;6720;51.958;4.540;2023-12-04T10:29:21;8.17;;;7.20;;
13303;SDS011;6720;51.958;4.540;2023-12-04T10:31:47;8.67;;;7.67;;
13303;SDS011;6720;51.958;4.540;2023-12-04T10:34:15;8.30;;;7.50;;
13303;SDS011;6720;51.958;4.540;2023-12-04T10:36:41;10.50;;;7.50;;
13303;SDS011;6720;51.958;4.540;2023-12-04T10:39:06;11.07;;;7.87;;
13303;SDS011;6720;51.958;4.540;2023-12-04T10:41:32;9.33;;;7.70;;
13303;SDS011;6720;51.958;4.540;2023-12-04T10:43:58;10.37;;;7.53;;
13303;SDS011;6720;51.958;4.540;2023-12-04T10:46:26;9.83;;;7.37;;
13303;SDS011;6720;51.958;4.540;2023-12-04T10:48:52;8.57;;;7.60;;
13303;SDS011;6720;51.958;4.540;2023-12-04T10:51:18;9.77;;;7.20;;
13303;SDS011;6720;51.958;4.540;2023-12-04T10:53:44;9.17;;;7.40;;
13303;SDS011;6720;51.958;4.540;2023-12-04T10:56:10;8.00;;;6.83;;
13303;SDS011;6720;51.958;4.540;2023-12-04T10:58:44;8.50;;;6.90;;
13303;SDS011;6720;51.958;4.540;2023-12-04T11:01:15;8.43;;;6.77;;
13303;SDS011;6720;51.958;4.540;2023-12-04T11:03:51;7.60;;;6.80;;
13303;SDS011;6720;51.958;4.540;2023-12-04T11:06:21;7.63;;;6.67;;
13303;SDS011;6720;51.958;4.540;2023-12-04T11:08:48;8.10;;;6.60;;
13303;SDS011;6720;51.958;4.540;2023-12-04T11:11:34;7.63;;;6.57;;
13303;SDS011;6720;51.958;4.540;2023-12-04T11:14:02;7.70;;;6.67;;
13303;SDS011;6720;51.958;4.540;2023-12-04T11:16:51;8.23;;;6.30;;
13303;SDS011;6720;51.958;4.540;2023-12-04T11:21:59;8.77;;;7.03;;
13303;SDS011;6720;51.958;4.540;2023-12-04T11:24:26;8.43;;;7.43;;
13303;SDS011;6720;51.958;4.540;2023-12-04T11:26:52;9.30;;;7.00;;
13303;SDS011;6720;51.958;4.540;2023-12-04T11:29:18;7.03;;;5.80;;
13303;SDS011;6720;51.958;4.540;2023-12-04T11:31:44;7.43;;;6.27;;
13303;SDS011;6720;51.958;4.540;2023-12-04T11:34:11;8.27;;;6.80;;
13303;SDS011;6720;51.958;4.540;2023-12-04T11:36:37;10.67;;;7.57;;
13303;SDS011;6720;51.958;4.540;2023-12-04T11:39:03;8.87;;;6.97;;
13303;SDS011;6720;51.958;4.540;2023-12-04T11:41:34;7.20;;;6.50;;
13303;SDS011;6720;51.958;4.540;2023-12-04T11:44:00;7.87;;;7.17;;
13303;SDS011;6720;51.958;4.540;2023-12-04T11:46:26;7.43;;;6.67;;
13303;SDS011;6720;51.958;4.540;2023-12-04T11:49:40;7.87;;;6.33;;
13303;SDS011;6720;51.958;4.540;2023-12-04T11:51:50;7.47;;;6.63;;
13303;SDS011;6720;51.958;4.540;2023-12-04T11:54:17;8.00;;;7.07;;
13303;SDS011;6720;51.958;4.540;2023-12-04T11:56:57;7.57;;;6.60;;
13303;SDS011;6720;51.958;4.540;2023-12-04T11:59:37;8.37;;;7.03;;
13303;SDS011;6720;51.958;4.540;2023-12-04T12:02:04;7.87;;;7.03;;
13303;SDS011;6720;51.958;4.540;2023-12-04T12:04:33;8.40;;;7.07;;
13303;SDS011;6720;51.958;4.540;2023-12-04T12:06:58;9.53;;;7.50;;
13303;SDS011;6720;51.958;4.540;2023-12-04T12:09:28;8.47;;;6.90;;
13303;SDS011;6720;51.958;4.540;2023-12-04T12:11:54;9.20;;;6.47;;
13303;SDS011;6720;51.958;4.540;2023-12-04T12:14:20;8.50;;;7.40;;
13303;SDS011;6720;51.958;4.540;2023-12-04T12:16:46;7.50;;;6.67;;
13303;SDS011;6720;51.958;4.540;2023-12-04T12:19:12;7.80;;;6.50;;
13303;SDS011;6720;51.958;4.540;2023-12-04T12:21:38;7.63;;;6.53;;
13303;SDS011;6720;51.958;4.540;2023-12-04T12:24:05;7.80;;;7.00;;
13303;SDS011;6720;51.958;4.540;2023-12-04T12:26:31;8.20;;;6.63;;
13303;SDS011;6720;51.958;4.540;2023-12-04T12:28:57;8.90;;;6.83;;
13303;SDS011;6720;51.958;4.540;2023-12-04T12:31:22;7.83;;;6.80;;
13303;SDS011;6720;51.958;4.540;2023-12-04T12:33:48;8.03;;;7.23;;
13303;SDS011;6720;51.958;4.540;2023-12-04T12:36:14;7.90;;;7.10;;
13303;SDS011;6720;51.958;4.540;2023-12-04T12:38:43;9.07;;;7.37;;
13303;SDS011;6720;51.958;4.540;2023-12-04T12:41:14;8.33;;;7.47;;
13303;SDS011;6720;51.958;4.540;2023-12-04T12:43:41;9.77;;;7.20;;
13303;SDS011;6720;51.958;4.540;2023-12-04T12:46:06;10.37;;;9.03;;
13303;SDS011;6720;51.958;4.540;2023-12-04T12:48:32;7.50;;;6.80;;
13303;SDS011;6720;51.958;4.540;2023-12-04T12:50:58;9.70;;;7.57;;
13303;SDS011;6720;51.958;4.540;2023-12-04T12:53:23;9.17;;;8.03;;
13303;SDS011;6720;51.958;4.540;2023-12-04T12:55:48;8.83;;;7.30;;
13303;SDS011;6720;51.958;4.540;2023-12-04T12:58:14;9.43;;;8.10;;
13303;SDS011;6720;51.958;4.540;2023-12-04T13:00:40;10.20;;;8.00;;
13303;SDS011;6720;51.958;4.540;2023-12-04T13:03:17;9.63;;;7.60;;
13303;SDS011;6720;51.958;4.540;2023-12-04T13:05:43;7.93;;;7.23;;
13303;SDS011;6720;51.958;4.540;2023-12-04T13:08:09;9.30;;;8.07;;
13303;SDS011;6720;51.958;4.540;2023-12-04T13:10:36;11.23;;;10.07;;
13303;SDS011;6720;51.958;4.540;2023-12-04T13:13:02;11.80;;;8.57;;
13303;SDS011;6720;51.958;4.540;2023-12-04T13:15:27;8.90;;;7.97;;
13303;SDS011;6720;51.958;4.540;2023-12-04T13:17:53;8.97;;;8.03;;
13303;SDS011;6720;51.958;4.540;2023-12-04T13:20:18;10.57;;;8.70;;
13303;SDS011;6720;51.958;4.540;2023-12-04T13:22:44;9.57;;;7.97;;
13303;SDS011;6720;51.958;4.540;2023-12-04T13:25:10;10.47;;;9.27;;
13303;SDS011;6720;51.958;4.540;2023-12-04T13:27:38;10.03;;;8.53;;
13303;SDS011;6720;51.958;4.540;2023-12-04T13:30:07;12.83;;;9.63;;
13303;SDS011;6720;51.958;4.540;2023-12-04T13:32:34;11.07;;;9.70;;
13303;SDS011;6720;51.958;4.540;2023-12-04T13:35:00;10.87;;;9.70;;
13303;SDS011;6720;51.958;4.540;2023-12-04T13:37:26;10.47;;;8.97;;
13303;SDS011;6720;51.958;4.540;2023-12-04T13:39:53;10.70;;;9.17;;
13303;SDS011;6720;51.958;4.540;2023-12-04T13:42:23;11.20;;;9.47;;
13303;SDS011;6720;51.958;4.540;2023-12-04T13:45:08;10.57;;;9.03;;
13303;SDS011;6720;51.958;4.540;2023-12-04T13:47:38;10.33;;;9.20;;
13303;SDS011;6720;51.958;4.540;2023-12-04T13:50:05;11.97;;;9.07;;
13303;SDS011;6720;51.958;4.540;2023-12-04T13:52:34;12.73;;;10.33;;
13303;SDS011;6720;51.958;4.540;2023-12-04T13:55:00;11.90;;;9.53;;
13303;SDS011;6720;51.958;4.540;2023-12-04T13:57:25;13.43;;;11.07;;
13303;SDS011;6720;51.958;4.540;2023-12-04T14:00:00;14.97;;;11.27;;
13303;SDS011;6720;51.958;4.540;2023-12-04T14:02:26;14.53;;;10.67;;
13303;SDS011;6720;51.958;4.540;2023-12-04T14:04:52;12.77;;;9.60;;
13303;SDS011;6720;51.958;4.540;2023-12-04T14:07:17;12.60;;;10.43;;
13303;SDS011;6720;51.958;4.540;2023-12-04T14:09:43;10.97;;;9.33;;
13303;SDS011;6720;51.958;4.540;2023-12-04T14:12:13;12.57;;;10.07;;
13303;SDS011;6720;51.958;4.540;2023-12-04T14:14:41;10.47;;;8.77;;
13303;SDS011;6720;51.958;4.540;2023-12-04T14:17:08;13.80;;;10.10;;
13303;SDS011;6720;51.958;4.540;2023-12-04T14:19:35;14.40;;;11.60;;
13303;SDS011;6720;51.958;4.540;2023-12-04T14:22:00;12.80;;;10.20;;
13303;SDS011;6720;51.958;4.540;2023-12-04T14:24:26;10.87;;;9.70;;
13303;SDS011;6720;51.958;4.540;2023-12-04T14:26:51;14.07;;;10.47;;
13303;SDS011;6720;51.958;4.540;2023-12-04T14:29:19;10.70;;;9.30;;
13303;SDS011;6720;51.958;4.540;2023-12-04T14:31:45;10.93;;;9.80;;
13303;SDS011;6720;51.958;4.540;2023-12-04T14:34:11;11.33;;;9.67;;
13303;SDS011;6720;51.958;4.540;2023-12-04T14:36:36;11.83;;;10.37;;
13303;SDS011;6720;51.958;4.540;2023-12-04T14:39:03;12.10;;;10.23;;
13303;SDS011;6720;51.958;4.540;2023-12-04T14:41:30;13.30;;;10.23;;
13303;SDS011;6720;51.958;4.540;2023-12-04T14:43:56;12.80;;;10.13;;
13303;SDS011;6720;51.958;4.540;2023-12-04T14:46:22;11.63;;;10.30;;
13303;SDS011;6720;51.958;4.540;2023-12-04T14:48:47;14.20;;;10.50;;
13303;SDS011;6720;51.958;4.540;2023-12-04T14:51:13;12.40;;;10.07;;